sensor_id;sensor_type;location;lat;lon;timestamp;pressure;altitude;pressure_sealevel;temperature;humidity
71889;BME280;59762;49.998;14.858;2023-09-30T00:00:15;97577.19;;;19.83;70.47
71889;BME280;59762;49.998;14.858;2023-09-30T00:03:01;97579.09;;;19.83;70.92
71889;BME280;59762;49.998;14.858;2023-09-30T00:05:26;97578.88;;;19.84;71.29
71889;BME280;59762;49.998;14.858;2023-09-30T00:07:52;97577.63;;;19.80;71.48
71889;BME280;59762;49.998;14.858;2023-09-30T00:10:18;97584.06;;;19.79;72.02
71889;BME280;59762;49.998;14.858;2023-09-30T00:12:43;97581.78;;;19.83;71.89
71889;BME280;59762;49.998;14.858;2023-09-30T00:15:11;97584.72;;;19.81;72.45
71889;BME280;59762;49.998;14.858;2023-09-30T00:17:36;97587.44;;;19.75;72.64
71889;BME280;59762;49.998;14.858;2023-09-30T00:20:03;97589.94;;;19.76;73.09
71889;BME280;59762;49.998;14.858;2023-09-30T00:22:29;97597.22;;;19.76;73.39
71889;BME280;59762;49.998;14.858;2023-09-30T00:24:55;97595.75;;;19.80;73.52
71889;BME280;59762;49.998;14.858;2023-09-30T00:27:21;97588.69;;;19.72;74.20
71889;BME280;59762;49.998;14.858;2023-09-30T00:29:47;97594.13;;;19.72;74.14
71889;BME280;59762;49.998;14.858;2023-09-30T00:32:13;97599.75;;;19.71;74.46
71889;BME280;59762;49.998;14.858;2023-09-30T00:34:39;97590.16;;;19.68;74.75
71889;BME280;59762;49.998;14.858;2023-09-30T00:37:05;97594.72;;;19.68;75.32
71889;BME280;59762;49.998;14.858;2023-09-30T00:39:34;97598.91;;;19.64;75.79
71889;BME280;59762;49.998;14.858;2023-09-30T00:42:00;97598.72;;;19.59;76.51
71889;BME280;59762;49.998;14.858;2023-09-30T00:44:27;97598.72;;;19.59;76.96
71889;BME280;59762;49.998;14.858;2023-09-30T00:46:53;97599.97;;;19.50;78.10
71889;BME280;59762;49.998;14.858;2023-09-30T00:49:21;97596.66;;;19.48;78.65
71889;BME280;59762;49.998;14.858;2023-09-30T00:51:48;97606.44;;;19.36;80.91
71889;BME280;59762;49.998;14.858;2023-09-30T00:54:15;97608.25;;;19.16;84.88
71889;BME280;59762;49.998;14.858;2023-09-30T00:56:46;97600.91;;;18.71;91.09
71889;BME280;59762;49.998;14.858;2023-09-30T00:59:13;97610.81;;;18.44;93.68
71889;BME280;59762;49.998;14.858;2023-09-30T01:01:41;97619.38;;;18.14;97.95
71889;BME280;59762;49.998;14.858;2023-09-30T01:04:08;97621.84;;;18.09;99.10
71889;BME280;59762;49.998;14.858;2023-09-30T01:06:34;97610.31;;;17.94;100.00
71889;BME280;59762;49.998;14.858;2023-09-30T01:09:00;97615.88;;;17.86;100.00
71889;BME280;59762;49.998;14.858;2023-09-30T01:11:26;97613.75;;;17.75;100.00
71889;BME280;59762;49.998;14.858;2023-09-30T01:13:52;97612.00;;;17.61;100.00
71889;BME280;59762;49.998;14.858;2023-09-30T01:16:17;97608.66;;;17.59;100.00
71889;BME280;59762;49.998;14.858;2023-09-30T01:18:43;97609.84;;;17.50;100.00
71889;BME280;59762;49.998;14.858;2023-09-30T01:21:09;97618.84;;;17.36;100.00
71889;BME280;59762;49.998;14.858;2023-09-30T01:23:35;97620.16;;;17.40;100.00
71889;BME280;59762;49.998;14.858;2023-09-30T01:26:07;97615.00;;;17.45;100.00
71889;BME280;59762;49.998;14.858;2023-09-30T01:28:34;97619.53;;;17.44;100.00
71889;BME280;59762;49.998;14.858;2023-09-30T01:31:00;97622.06;;;17.46;100.00
71889;BME280;59762;49.998;14.858;2023-09-30T01:33:27;97624.56;;;17.47;100.00
71889;BME280;59762;49.998;14.858;2023-09-30T01:35:53;97631.06;;;17.53;100.00
71889;BME280;59762;49.998;14.858;2023-09-30T01:38:20;97631.19;;;17.45;100.00
71889;BME280;59762;49.998;14.858;2023-09-30T01:40:46;97631.63;;;17.48;100.00
71889;BME280;59762;49.998;14.858;2023-09-30T01:43:15;97631.69;;;17.55;100.00
71889;BME280;59762;49.998;14.858;2023-09-30T01:45:42;97632.63;;;17.68;100.00
71889;BME280;59762;49.998;14.858;2023-09-30T01:48:08;97626.47;;;17.81;100.00
71889;BME280;59762;49.998;14.858;2023-09-30T01:50:40;97632.25;;;17.78;100.00
71889;BME280;59762;49.998;14.858;2023-09-30T01:53:06;97630.16;;;17.73;100.00
71889;BME280;59762;49.998;14.858;2023-09-30T01:55:33;97634.91;;;17.71;100.00
71889;BME280;59762;49.998;14.858;2023-09-30T01:57:59;97629.91;;;17.68;100.00
71889;BME280;59762;49.998;14.858;2023-09-30T02:00:25;97619.66;;;17.57;100.00
71889;BME280;59762;49.998;14.858;2023-09-30T02:02:55;97622.00;;;17.67;99.57
71889;BME280;59762;49.998;14.858;2023-09-30T02:05:22;97629.63;;;17.57;99.73
71889;BME280;59762;49.998;14.858;2023-09-30T02:07:49;97629.03;;;17.61;97.89
71889;BME280;59762;49.998;14.858;2023-09-30T02:10:15;97631.34;;;17.64;97.63
71889;BME280;59762;49.998;14.858;2023-09-30T02:12:41;97635.28;;;17.62;97.57
71889;BME280;59762;49.998;14.858;2023-09-30T02:15:07;97632.97;;;17.59;96.56
71889;BME280;59762;49.998;14.858;2023-09-30T02:17:33;97636.03;;;17.56;96.34
71889;BME280;59762;49.998;14.858;2023-09-30T02:19:59;97645.59;;;17.58;95.88
71889;BME280;59762;49.998;14.858;2023-09-30T02:22:27;97656.69;;;17.63;94.61
71889;BME280;59762;49.998;14.858;2023-09-30T02:24:53;97659.34;;;17.57;95.23
71889;BME280;59762;49.998;14.858;2023-09-30T02:27:20;97655.16;;;17.54;95.99
71889;BME280;59762;49.998;14.858;2023-09-30T02:29:45;97659.28;;;17.50;95.82
71889;BME280;59762;49.998;14.858;2023-09-30T02:32:11;97658.06;;;17.53;95.29
71889;BME280;59762;49.998;14.858;2023-09-30T02:34:39;97663.03;;;17.56;93.15
71889;BME280;59762;49.998;14.858;2023-09-30T02:37:05;97672.59;;;17.58;92.87
71889;BME280;59762;49.998;14.858;2023-09-30T02:39:30;97673.22;;;17.54;93.66
71889;BME280;59762;49.998;14.858;2023-09-30T02:41:56;97672.13;;;17.48;94.68
71889;BME280;59762;49.998;14.858;2023-09-30T02:44:22;97676.44;;;17.43;94.24
71889;BME280;59762;49.998;14.858;2023-09-30T02:46:48;97670.56;;;17.39;94.04
71889;BME280;59762;49.998;14.858;2023-09-30T02:49:13;97671.03;;;17.43;93.78
71889;BME280;59762;49.998;14.858;2023-09-30T02:51:39;97682.16;;;17.33;93.95
71889;BME280;59762;49.998;14.858;2023-09-30T02:54:05;97682.34;;;17.32;93.80
71889;BME280;59762;49.998;14.858;2023-09-30T02:56:31;97684.53;;;17.43;91.74
71889;BME280;59762;49.998;14.858;2023-09-30T02:58:56;97676.84;;;17.40;92.48
71889;BME280;59762;49.998;14.858;2023-09-30T03:01:25;97678.78;;;17.31;92.97
71889;BME280;59762;49.998;14.858;2023-09-30T03:03:51;97680.66;;;17.31;92.84
71889;BME280;59762;49.998;14.858;2023-09-30T03:06:17;97676.56;;;17.35;91.13
71889;BME280;59762;49.998;14.858;2023-09-30T03:08:44;97691.47;;;17.31;92.33
71889;BME280;59762;49.998;14.858;2023-09-30T03:11:10;97686.06;;;17.31;92.07
71889;BME280;59762;49.998;14.858;2023-09-30T03:13:36;97699.94;;;17.28;92.74
71889;BME280;59762;49.998;14.858;2023-09-30T03:16:03;97689.59;;;17.31;92.05
71889;BME280;59762;49.998;14.858;2023-09-30T03:18:29;97691.19;;;17.26;91.77
71889;BME280;59762;49.998;14.858;2023-09-30T03:21:00;97695.31;;;17.22;92.27
71889;BME280;59762;49.998;14.858;2023-09-30T03:23:30;97699.44;;;17.18;92.31
71889;BME280;59762;49.998;14.858;2023-09-30T03:25:59;97710.84;;;17.20;92.82
71889;BME280;59762;49.998;14.858;2023-09-30T03:28:27;97699.38;;;17.11;93.34
71889;BME280;59762;49.998;14.858;2023-09-30T03:30:54;97702.50;;;17.15;92.19
71889;BME280;59762;49.998;14.858;2023-09-30T03:33:21;97713.31;;;17.15;92.47
71889;BME280;59762;49.998;14.858;2023-09-30T03:35:48;97713.94;;;17.17;91.52
71889;BME280;59762;49.998;14.858;2023-09-30T03:38:13;97717.03;;;17.14;91.90
71889;BME280;59762;49.998;14.858;2023-09-30T03:40:40;97719.84;;;17.06;91.80
71889;BME280;59762;49.998;14.858;2023-09-30T03:43:13;97726.28;;;17.05;92.58
71889;BME280;59762;49.998;14.858;2023-09-30T03:45:40;97720.41;;;17.01;92.48
71889;BME280;59762;49.998;14.858;2023-09-30T03:48:06;97727.94;;;17.06;92.10
71889;BME280;59762;49.998;14.858;2023-09-30T03:50:32;97729.97;;;17.04;92.51
71889;BME280;59762;49.998;14.858;2023-09-30T03:53:02;97728.50;;;17.01;92.54
71889;BME280;59762;49.998;14.858;2023-09-30T03:55:30;97727.59;;;16.94;92.75
71889;BME280;59762;49.998;14.858;2023-09-30T03:57:57;97730.75;;;16.98;92.46
71889;BME280;59762;49.998;14.858;2023-09-30T04:00:23;97728.06;;;16.98;92.27
71889;BME280;59762;49.998;14.858;2023-09-30T04:02:50;97735.22;;;16.91;93.08
71889;BME280;59762;49.998;14.858;2023-09-30T04:05:20;97734.34;;;16.84;93.00
71889;BME280;59762;49.998;14.858;2023-09-30T04:07:52;97745.22;;;16.76;94.38
71889;BME280;59762;49.998;14.858;2023-09-30T04:10:18;97753.84;;;16.71;94.51
71889;BME280;59762;49.998;14.858;2023-09-30T04:12:43;97758.59;;;16.84;93.61
71889;BME280;59762;49.998;14.858;2023-09-30T04:15:09;97756.47;;;16.79;93.64
71889;BME280;59762;49.998;14.858;2023-09-30T04:17:38;97761.47;;;16.82;93.21
71889;BME280;59762;49.998;14.858;2023-09-30T04:20:06;97773.38;;;16.88;93.01
71889;BME280;59762;49.998;14.858;2023-09-30T04:22:35;97771.50;;;16.88;93.23
71889;BME280;59762;49.998;14.858;2023-09-30T04:25:02;97770.59;;;16.81;93.95
71889;BME280;59762;49.998;14.858;2023-09-30T04:27:31;97771.06;;;16.85;94.01
71889;BME280;59762;49.998;14.858;2023-09-30T04:29:57;97777.47;;;16.84;94.24
71889;BME280;59762;49.998;14.858;2023-09-30T04:32:22;97792.19;;;16.81;93.43
71889;BME280;59762;49.998;14.858;2023-09-30T04:34:48;97785.75;;;16.82;93.86
71889;BME280;59762;49.998;14.858;2023-09-30T04:37:14;97791.44;;;16.73;94.79
71889;BME280;59762;49.998;14.858;2023-09-30T04:39:40;97789.47;;;16.81;93.65
71889;BME280;59762;49.998;14.858;2023-09-30T04:42:05;97793.66;;;16.69;94.65
71889;BME280;59762;49.998;14.858;2023-09-30T04:44:37;97804.81;;;16.66;95.20
71889;BME280;59762;49.998;14.858;2023-09-30T04:47:04;97806.13;;;16.70;94.99
71889;BME280;59762;49.998;14.858;2023-09-30T04:49:30;97804.53;;;16.76;94.89
71889;BME280;59762;49.998;14.858;2023-09-30T04:51:56;97815.25;;;16.69;95.27
71889;BME280;59762;49.998;14.858;2023-09-30T04:54:22;97810.69;;;16.70;94.73
71889;BME280;59762;49.998;14.858;2023-09-30T04:56:47;97821.50;;;16.70;95.13
71889;BME280;59762;49.998;14.858;2023-09-30T04:59:13;97815.06;;;16.71;95.18
71889;BME280;59762;49.998;14.858;2023-09-30T05:01:39;97829.47;;;16.63;95.92
71889;BME280;59762;49.998;14.858;2023-09-30T05:04:05;97826.22;;;16.68;96.24
71889;BME280;59762;49.998;14.858;2023-09-30T05:06:32;97848.81;;;16.67;96.12
71889;BME280;59762;49.998;14.858;2023-09-30T05:08:58;97847.88;;;16.60;96.96
71889;BME280;59762;49.998;14.858;2023-09-30T05:11:25;97850.28;;;16.55;97.59
71889;BME280;59762;49.998;14.858;2023-09-30T05:13:51;97839.50;;;16.55;97.86
71889;BME280;59762;49.998;14.858;2023-09-30T05:16:17;97851.50;;;16.52;98.70
71889;BME280;59762;49.998;14.858;2023-09-30T05:18:44;97856.78;;;16.46;98.66
71889;BME280;59762;49.998;14.858;2023-09-30T05:21:09;97860.19;;;16.40;99.75
71889;BME280;59762;49.998;14.858;2023-09-30T05:23:37;97853.31;;;16.37;100.00
71889;BME280;59762;49.998;14.858;2023-09-30T05:26:03;97862.56;;;16.35;99.70
71889;BME280;59762;49.998;14.858;2023-09-30T05:28:29;97869.44;;;16.23;100.00
71889;BME280;59762;49.998;14.858;2023-09-30T05:30:55;97870.75;;;16.27;100.00
71889;BME280;59762;49.998;14.858;2023-09-30T05:33:21;97874.66;;;16.24;100.00
71889;BME280;59762;49.998;14.858;2023-09-30T05:35:48;97883.56;;;16.25;100.00
71889;BME280;59762;49.998;14.858;2023-09-30T05:38:13;97901.72;;;16.31;100.00
71889;BME280;59762;49.998;14.858;2023-09-30T05:40:39;97899.91;;;16.23;99.93
71889;BME280;59762;49.998;14.858;2023-09-30T05:43:05;97893.94;;;16.13;100.00
71889;BME280;59762;49.998;14.858;2023-09-30T05:45:32;97891.66;;;16.02;100.00
71889;BME280;59762;49.998;14.858;2023-09-30T05:48:02;97903.13;;;16.04;100.00
71889;BME280;59762;49.998;14.858;2023-09-30T05:50:32;97893.25;;;15.97;100.00
71889;BME280;59762;49.998;14.858;2023-09-30T05:52:59;97898.69;;;15.89;100.00
71889;BME280;59762;49.998;14.858;2023-09-30T05:55:25;97906.47;;;15.84;100.00
71889;BME280;59762;49.998;14.858;2023-09-30T05:57:51;97898.22;;;15.85;100.00
71889;BME280;59762;49.998;14.858;2023-09-30T06:00:20;97901.09;;;15.84;100.00
71889;BME280;59762;49.998;14.858;2023-09-30T06:02:49;97912.03;;;15.82;100.00
71889;BME280;59762;49.998;14.858;2023-09-30T06:05:17;97921.88;;;15.67;100.00
71889;BME280;59762;49.998;14.858;2023-09-30T06:07:45;97918.78;;;15.48;100.00
71889;BME280;59762;49.998;14.858;2023-09-30T06:10:11;97916.59;;;15.51;100.00
71889;BME280;59762;49.998;14.858;2023-09-30T06:12:38;97911.75;;;15.47;100.00
71889;BME280;59762;49.998;14.858;2023-09-30T06:15:04;97911.09;;;15.45;100.00
71889;BME280;59762;49.998;14.858;2023-09-30T06:17:31;97928.78;;;15.39;100.00
71889;BME280;59762;49.998;14.858;2023-09-30T06:19:58;97923.09;;;15.34;100.00
71889;BME280;59762;49.998;14.858;2023-09-30T06:22:32;97939.22;;;15.26;100.00
71889;BME280;59762;49.998;14.858;2023-09-30T06:24:58;97937.59;;;15.17;100.00
71889;BME280;59762;49.998;14.858;2023-09-30T06:27:24;97937.94;;;15.14;100.00
71889;BME280;59762;49.998;14.858;2023-09-30T06:29:49;97942.13;;;15.08;100.00
71889;BME280;59762;49.998;14.858;2023-09-30T06:32:15;97954.13;;;14.98;100.00
71889;BME280;59762;49.998;14.858;2023-09-30T06:34:41;97960.34;;;14.90;100.00
71889;BME280;59762;49.998;14.858;2023-09-30T06:37:07;97973.81;;;14.82;100.00
71889;BME280;59762;49.998;14.858;2023-09-30T06:39:34;97969.78;;;14.86;100.00
71889;BME280;59762;49.998;14.858;2023-09-30T06:41:59;97974.50;;;14.68;100.00
71889;BME280;59762;49.998;14.858;2023-09-30T06:44:25;97971.00;;;14.60;100.00
71889;BME280;59762;49.998;14.858;2023-09-30T06:46:51;97965.47;;;14.45;100.00
71889;BME280;59762;49.998;14.858;2023-09-30T06:49:16;97963.59;;;14.54;100.00
71889;BME280;59762;49.998;14.858;2023-09-30T06:51:42;97977.06;;;14.38;100.00
71889;BME280;59762;49.998;14.858;2023-09-30T06:54:08;97981.56;;;14.13;100.00
71889;BME280;59762;49.998;14.858;2023-09-30T06:56:34;97978.09;;;14.29;100.00
71889;BME280;59762;49.998;14.858;2023-09-30T06:59:01;97970.34;;;14.34;100.00
71889;BME280;59762;49.998;14.858;2023-09-30T07:01:26;97962.97;;;14.44;100.00
71889;BME280;59762;49.998;14.858;2023-09-30T07:03:52;97963.75;;;14.68;100.00
71889;BME280;59762;49.998;14.858;2023-09-30T07:06:25;97965.63;;;14.60;100.00
71889;BME280;59762;49.998;14.858;2023-09-30T07:08:51;97966.66;;;14.59;100.00
71889;BME280;59762;49.998;14.858;2023-09-30T07:11:27;97981.94;;;14.50;100.00
71889;BME280;59762;49.998;14.858;2023-09-30T07:13:53;97991.84;;;14.42;100.00
71889;BME280;59762;49.998;14.858;2023-09-30T07:16:19;97991.94;;;14.08;100.00
71889;BME280;59762;49.998;14.858;2023-09-30T07:18:44;97996.81;;;14.05;100.00
71889;BME280;59762;49.998;14.858;2023-09-30T07:21:13;98007.19;;;13.92;100.00
71889;BME280;59762;49.998;14.858;2023-09-30T07:23:38;98012.56;;;13.92;100.00
71889;BME280;59762;49.998;14.858;2023-09-30T07:26:04;98017.78;;;13.93;100.00
71889;BME280;59762;49.998;14.858;2023-09-30T07:28:30;98022.63;;;13.98;100.00
71889;BME280;59762;49.998;14.858;2023-09-30T07:30:57;98024.78;;;13.86;100.00
71889;BME280;59762;49.998;14.858;2023-09-30T07:33:22;98026.16;;;13.90;100.00
71889;BME280;59762;49.998;14.858;2023-09-30T07:35:48;98032.47;;;13.73;100.00
71889;BME280;59762;49.998;14.858;2023-09-30T07:38:14;98035.09;;;13.99;100.00
71889;BME280;59762;49.998;14.858;2023-09-30T07:40:40;98041.13;;;14.09;100.00
71889;BME280;59762;49.998;14.858;2023-09-30T07:43:06;98049.34;;;14.07;100.00
71889;BME280;59762;49.998;14.858;2023-09-30T07:45:32;98056.41;;;14.00;100.00
71889;BME280;59762;49.998;14.858;2023-09-30T07:47:58;98059.94;;;14.09;100.00
71889;BME280;59762;49.998;14.858;2023-09-30T07:50:24;98065.31;;;14.09;100.00
71889;BME280;59762;49.998;14.858;2023-09-30T07:52:50;98065.69;;;14.22;100.00
71889;BME280;59762;49.998;14.858;2023-09-30T07:55:15;98070.50;;;14.10;100.00
71889;BME280;59762;49.998;14.858;2023-09-30T07:57:41;98077.22;;;14.06;100.00
71889;BME280;59762;49.998;14.858;2023-09-30T08:00:09;98076.38;;;14.14;100.00
71889;BME280;59762;49.998;14.858;2023-09-30T08:02:40;98086.28;;;14.05;100.00
71889;BME280;59762;49.998;14.858;2023-09-30T08:05:06;98084.09;;;14.09;100.00
71889;BME280;59762;49.998;14.858;2023-09-30T08:07:33;98083.25;;;14.08;99.91
71889;BME280;59762;49.998;14.858;2023-09-30T08:09:59;98086.63;;;14.10;99.59
71889;BME280;59762;49.998;14.858;2023-09-30T08:12:25;98085.34;;;14.22;100.00
71889;BME280;59762;49.998;14.858;2023-09-30T08:14:51;98093.78;;;14.35;99.84
71889;BME280;59762;49.998;14.858;2023-09-30T08:17:19;98087.38;;;14.36;98.17
71889;BME280;59762;49.998;14.858;2023-09-30T08:19:45;98097.25;;;14.28;97.81
71889;BME280;59762;49.998;14.858;2023-09-30T08:22:13;98088.72;;;14.32;98.02
71889;BME280;59762;49.998;14.858;2023-09-30T08:24:39;98083.19;;;14.50;98.58
71889;BME280;59762;49.998;14.858;2023-09-30T08:27:05;98087.75;;;14.49;97.39
71889;BME280;59762;49.998;14.858;2023-09-30T08:29:34;98090.44;;;14.65;95.64
71889;BME280;59762;49.998;14.858;2023-09-30T08:32:03;98079.53;;;14.59;94.51
71889;BME280;59762;49.998;14.858;2023-09-30T08:34:29;98089.44;;;14.74;92.03
71889;BME280;59762;49.998;14.858;2023-09-30T08:36:55;98084.03;;;14.82;90.95
71889;BME280;59762;49.998;14.858;2023-09-30T08:39:22;98069.44;;;14.69;92.43
71889;BME280;59762;49.998;14.858;2023-09-30T08:41:50;98079.34;;;14.84;92.06
71889;BME280;59762;49.998;14.858;2023-09-30T08:44:16;98079.88;;;14.72;91.53
71889;BME280;59762;49.998;14.858;2023-09-30T08:46:42;98085.06;;;14.81;92.11
71889;BME280;59762;49.998;14.858;2023-09-30T08:49:09;98083.88;;;15.16;91.95
71889;BME280;59762;49.998;14.858;2023-09-30T08:51:36;98087.03;;;15.28;88.58
71889;BME280;59762;49.998;14.858;2023-09-30T08:54:04;98088.53;;;15.30;88.47
71889;BME280;59762;49.998;14.858;2023-09-30T08:56:31;98099.31;;;15.22;87.31
71889;BME280;59762;49.998;14.858;2023-09-30T08:59:02;98108.91;;;15.17;89.78
71889;BME280;59762;49.998;14.858;2023-09-30T09:01:29;98112.59;;;15.32;87.53
71889;BME280;59762;49.998;14.858;2023-09-30T09:03:56;98112.59;;;15.32;87.21
71889;BME280;59762;49.998;14.858;2023-09-30T09:06:23;98105.03;;;15.43;87.20
71889;BME280;59762;49.998;14.858;2023-09-30T09:08:50;98103.44;;;15.65;88.26
71889;BME280;59762;49.998;14.858;2023-09-30T09:11:15;98118.94;;;15.63;88.03
71889;BME280;59762;49.998;14.858;2023-09-30T09:13:52;98118.16;;;15.46;86.29
71889;BME280;59762;49.998;14.858;2023-09-30T09:16:22;98112.41;;;15.49;86.89
71889;BME280;59762;49.998;14.858;2023-09-30T09:18:49;98110.06;;;15.46;84.79
71889;BME280;59762;49.998;14.858;2023-09-30T09:23:47;98108.03;;;15.56;84.38
71889;BME280;59762;49.998;14.858;2023-09-30T09:28:49;98117.03;;;15.79;83.85
71889;BME280;59762;49.998;14.858;2023-09-30T09:31:22;98114.88;;;15.75;83.65
71889;BME280;59762;49.998;14.858;2023-09-30T09:33:52;98101.88;;;15.86;83.64
71889;BME280;59762;49.998;14.858;2023-09-30T09:36:19;98106.72;;;15.91;82.91
71889;BME280;59762;49.998;14.858;2023-09-30T09:38:50;98120.16;;;15.91;83.32
71889;BME280;59762;49.998;14.858;2023-09-30T09:41:20;98126.53;;;16.06;83.71
71889;BME280;59762;49.998;14.858;2023-09-30T09:43:49;98125.34;;;16.08;80.82
71889;BME280;59762;49.998;14.858;2023-09-30T09:46:17;98117.59;;;16.05;80.58
71889;BME280;59762;49.998;14.858;2023-09-30T09:48:45;98112.59;;;16.25;79.61
71889;BME280;59762;49.998;14.858;2023-09-30T09:51:14;98119.69;;;15.87;79.81
71889;BME280;59762;49.998;14.858;2023-09-30T09:53:41;98128.25;;;15.91;81.14
71889;BME280;59762;49.998;14.858;2023-09-30T09:56:10;98130.31;;;15.81;80.11
71889;BME280;59762;49.998;14.858;2023-09-30T09:58:39;98132.69;;;15.76;79.36
71889;BME280;59762;49.998;14.858;2023-09-30T10:01:06;98135.47;;;15.98;80.91
71889;BME280;59762;49.998;14.858;2023-09-30T10:03:32;98141.59;;;16.23;79.29
71889;BME280;59762;49.998;14.858;2023-09-30T10:05:59;98135.06;;;16.17;78.78
71889;BME280;59762;49.998;14.858;2023-09-30T10:08:39;98145.06;;;16.01;79.03
71889;BME280;59762;49.998;14.858;2023-09-30T10:11:06;98141.09;;;16.19;80.03
71889;BME280;59762;49.998;14.858;2023-09-30T10:21:38;98140.50;;;16.40;76.06
71889;BME280;59762;49.998;14.858;2023-09-30T10:29:57;98131.91;;;16.36;73.53
71889;BME280;59762;49.998;14.858;2023-09-30T10:40:48;98136.72;;;16.18;72.12
71889;BME280;59762;49.998;14.858;2023-09-30T10:43:29;98133.00;;;16.19;73.67
71889;BME280;59762;49.998;14.858;2023-09-30T10:45:59;98130.25;;;16.05;71.68
71889;BME280;59762;49.998;14.858;2023-09-30T10:50:55;98124.91;;;16.19;70.53
71889;BME280;59762;49.998;14.858;2023-09-30T10:53:22;98132.28;;;16.33;70.52
71889;BME280;59762;49.998;14.858;2023-09-30T10:55:55;98128.03;;;16.39;67.58
71889;BME280;59762;49.998;14.858;2023-09-30T11:01:07;98121.78;;;16.46;70.38
71889;BME280;59762;49.998;14.858;2023-09-30T11:03:33;98129.69;;;16.48;69.12
71889;BME280;59762;49.998;14.858;2023-09-30T11:05:59;98133.63;;;16.37;65.92
71889;BME280;59762;49.998;14.858;2023-09-30T11:08:29;98126.16;;;16.47;69.57
71889;BME280;59762;49.998;14.858;2023-09-30T11:10:57;98124.25;;;16.56;68.17
71889;BME280;59762;49.998;14.858;2023-09-30T11:13:31;98122.34;;;16.64;68.72
71889;BME280;59762;49.998;14.858;2023-09-30T11:16:04;98125.22;;;16.63;65.12
71889;BME280;59762;49.998;14.858;2023-09-30T11:18:36;98125.50;;;16.45;65.60
71889;BME280;59762;49.998;14.858;2023-09-30T11:21:08;98129.13;;;16.83;64.77
71889;BME280;59762;49.998;14.858;2023-09-30T11:23:36;98131.16;;;16.81;65.96
71889;BME280;59762;49.998;14.858;2023-09-30T11:26:03;98137.63;;;16.72;64.72
71889;BME280;59762;49.998;14.858;2023-09-30T11:28:40;98136.91;;;16.55;65.73
71889;BME280;59762;49.998;14.858;2023-09-30T11:31:12;98132.09;;;16.65;65.18
71889;BME280;59762;49.998;14.858;2023-09-30T11:33:55;98123.59;;;16.54;67.17
71889;BME280;59762;49.998;14.858;2023-09-30T11:36:23;98129.69;;;16.48;67.49
71889;BME280;59762;49.998;14.858;2023-09-30T11:38:50;98135.56;;;16.51;68.12
71889;BME280;59762;49.998;14.858;2023-09-30T11:41:18;98127.97;;;16.55;68.18
71889;BME280;59762;49.998;14.858;2023-09-30T11:44:06;98131.09;;;16.36;68.88
71889;BME280;59762;49.998;14.858;2023-09-30T11:47:01;98136.31;;;16.37;67.78
71889;BME280;59762;49.998;14.858;2023-09-30T11:52:03;98132.09;;;16.35;66.33
71889;BME280;59762;49.998;14.858;2023-09-30T11:54:30;98133.22;;;16.48;68.55
71889;BME280;59762;49.998;14.858;2023-09-30T11:56:57;98125.69;;;16.44;65.36
71889;BME280;59762;49.998;14.858;2023-09-30T11:59:24;98124.66;;;16.45;65.91
71889;BME280;59762;49.998;14.858;2023-09-30T12:01:50;98121.41;;;16.49;65.54
71889;BME280;59762;49.998;14.858;2023-09-30T12:04:17;98119.22;;;16.53;64.82
71889;BME280;59762;49.998;14.858;2023-09-30T12:06:47;98120.91;;;16.54;65.28
71889;BME280;59762;49.998;14.858;2023-09-30T12:09:14;98107.66;;;16.67;64.96
71889;BME280;59762;49.998;14.858;2023-09-30T12:11:41;98108.75;;;16.58;67.97
71889;BME280;59762;49.998;14.858;2023-09-30T12:14:10;98111.91;;;16.61;65.08
71889;BME280;59762;49.998;14.858;2023-09-30T12:16:36;98116.56;;;16.67;66.10
71889;BME280;59762;49.998;14.858;2023-09-30T12:19:03;98111.38;;;16.66;64.38
71889;BME280;59762;49.998;14.858;2023-09-30T12:21:28;98108.13;;;16.70;64.74
71889;BME280;59762;49.998;14.858;2023-09-30T12:23:54;98095.56;;;16.85;65.33
71889;BME280;59762;49.998;14.858;2023-09-30T12:26:19;98099.97;;;17.01;64.35
71889;BME280;59762;49.998;14.858;2023-09-30T12:28:46;98105.00;;;17.04;64.17
71889;BME280;59762;49.998;14.858;2023-09-30T12:31:12;98102.41;;;17.10;64.77
71889;BME280;59762;49.998;14.858;2023-09-30T12:33:39;98106.25;;;17.16;65.03
71889;BME280;59762;49.998;14.858;2023-09-30T12:36:05;98098.94;;;17.24;64.27
71889;BME280;59762;49.998;14.858;2023-09-30T12:38:31;98093.78;;;17.15;64.39
71889;BME280;59762;49.998;14.858;2023-09-30T12:40:57;98101.63;;;17.24;63.96
71889;BME280;59762;49.998;14.858;2023-09-30T12:43:23;98094.06;;;17.20;63.68
71889;BME280;59762;49.998;14.858;2023-09-30T12:45:48;98098.06;;;17.24;65.25
71889;BME280;59762;49.998;14.858;2023-09-30T12:48:14;98093.03;;;17.21;62.41
71889;BME280;59762;49.998;14.858;2023-09-30T12:50:41;98089.88;;;17.17;64.59
71889;BME280;59762;49.998;14.858;2023-09-30T12:53:07;98087.09;;;17.25;62.78
71889;BME280;59762;49.998;14.858;2023-09-30T12:55:32;98081.53;;;17.27;63.20
71889;BME280;59762;49.998;14.858;2023-09-30T12:57:59;98092.50;;;17.25;60.67
71889;BME280;59762;49.998;14.858;2023-09-30T13:00:25;98096.00;;;17.26;60.96
71889;BME280;59762;49.998;14.858;2023-09-30T13:02:52;98095.44;;;17.16;61.64
71889;BME280;59762;49.998;14.858;2023-09-30T13:05:18;98091.72;;;17.17;60.51
71889;BME280;59762;49.998;14.858;2023-09-30T13:07:45;98089.94;;;17.09;61.56
71889;BME280;59762;49.998;14.858;2023-09-30T13:10:11;98089.41;;;17.14;63.01
71889;BME280;59762;49.998;14.858;2023-09-30T13:12:38;98085.56;;;17.08;59.42
71889;BME280;59762;49.998;14.858;2023-09-30T13:15:05;98087.81;;;17.19;60.21
71889;BME280;59762;49.998;14.858;2023-09-30T13:17:31;98093.22;;;17.19;55.72
71889;BME280;59762;49.998;14.858;2023-09-30T13:19:57;98088.28;;;17.08;57.01
71889;BME280;59762;49.998;14.858;2023-09-30T13:22:23;98088.34;;;17.00;55.91